PWSweather.com
Personal Weather Stations
Station Observations
KNJOAKLA6
Oakland, NJ 07436

Oakland, NJ 07436

Lat: 41.041, Lon: -74.231

Elevation: 280

Station Type: Davis VP 2

http://stratacolorado.com/oaknjwx/

Latest ConditionsUpdated 9:00:00 AM EDT Tuesday, Apr 21, 2015
Currently Today's Max Today's Min Today's Average
Temperature 52.6°F11.4°C 54.7°F12.6°C 52.3°F11.3°C 53.5°F11.9°C
Dew Point 51.8°F11.0°C 54.1°F12.3°C 51.7°F10.9°C 52.8°F11.6°C
Winds 6.0 mph W9.7 kmh W 8.0 mph NW12.9 kmh NW - 1.0 mph 1.6 kmh
Wind Gusts 14.0 mph22.5 kmh 14.0 mph22.5 kmh - -
Humidity 97% 100% 97% 98%
Pressure 29.61 in1002.7 mb 29.61 in1002.7 mb 29.52 in999.7 mb -
Precipitation - 0.21 in5.3 mm - -
Hour Temp Dew Point Humidity Winds Wind Gusts Pressure Precip Precip Rate Daily Precip Total
09:00 AM 52.6°F11.4°C 51.8°F11.0°C 97% 6.0 mph W9.7 kmh W 14.0 mph22.5 kmh 29.61 in1002.7 mb 0.00 in0.0 mm 0.00 in0.0 mm 0.21 in5.3 mm
08:50 AM 52.6°F11.4°C 51.8°F11.0°C 97% 4.0 mph NW6.4 kmh NW 14.0 mph22.5 kmh 29.60 in1002.4 mb 0.00 in0.0 mm 0.00 in0.0 mm 0.21 in5.3 mm
08:40 AM 52.6°F11.4°C 51.8°F11.0°C 97% 5.0 mph WNW8.0 kmh WNW 13.0 mph20.9 kmh 29.59 in1002.0 mb 0.01 in0.3 mm 0.00 in0.0 mm 0.21 in5.3 mm
08:30 AM 52.7°F11.5°C 51.9°F11.1°C 97% 2.0 mph WNW3.2 kmh WNW 13.0 mph20.9 kmh 29.59 in1002.0 mb 0.01 in0.3 mm 0.00 in0.0 mm 0.21 in5.3 mm
08:20 AM 53.2°F11.8°C 52.6°F11.4°C 98% 4.0 mph W6.4 kmh W 8.0 mph12.9 kmh 29.58 in1001.7 mb 0.01 in0.3 mm 0.00 in0.0 mm 0.21 in5.3 mm
08:10 AM 53.1°F11.7°C 52.6°F11.4°C 98% 1.0 mph WNW1.6 kmh WNW 9.0 mph14.5 kmh 29.59 in1002.0 mb 0.01 in0.3 mm 0.00 in0.0 mm 0.21 in5.3 mm
08:00 AM 53.0°F11.7°C 52.5°F11.4°C 98% 2.0 mph NW3.2 kmh NW 9.0 mph14.5 kmh 29.60 in1002.4 mb 0.01 in0.3 mm 0.00 in0.0 mm 0.21 in5.3 mm
07:50 AM 53.4°F11.9°C 52.8°F11.6°C 98% 4.0 mph NW6.4 kmh NW 9.0 mph14.5 kmh 29.59 in1002.0 mb 0.01 in0.3 mm 0.06 in1.5 mm 0.21 in5.3 mm
07:40 AM 53.9°F12.2°C 53.3°F11.8°C 98% 6.0 mph W9.7 kmh W 12.0 mph19.3 kmh 29.58 in1001.7 mb 0.00 in0.0 mm 0.00 in0.0 mm 0.20 in5.1 mm
07:30 AM 53.7°F12.1°C 53.1°F11.7°C 98% Calm Calm 5.0 mph8.0 kmh 29.56 in1001.0 mb 0.00 in0.0 mm 0.00 in0.0 mm 0.20 in5.1 mm
07:20 AM 53.3°F11.8°C 52.7°F11.5°C 98% 1.0 mph SW1.6 kmh SW 6.0 mph9.7 kmh 29.56 in1001.0 mb 0.00 in0.0 mm 0.00 in0.0 mm 0.20 in5.1 mm
07:10 AM 52.8°F11.6°C 52.3°F11.3°C 98% 2.0 mph SW3.2 kmh SW 6.0 mph9.7 kmh 29.56 in1001.0 mb 0.00 in0.0 mm 0.00 in0.0 mm 0.20 in5.1 mm
07:00 AM 52.4°F11.3°C 51.9°F11.1°C 98% Calm Calm 3.0 mph4.8 kmh 29.56 in1001.0 mb 0.00 in0.0 mm 0.00 in0.0 mm 0.20 in5.1 mm
06:50 AM 52.3°F11.3°C 51.8°F11.0°C 98% Calm Calm 3.0 mph4.8 kmh 29.56 in1001.0 mb 0.00 in0.0 mm 0.00 in0.0 mm 0.20 in5.1 mm
06:40 AM 52.3°F11.3°C 51.8°F11.0°C 98% Calm Calm 3.0 mph4.8 kmh 29.56 in1001.0 mb 0.00 in0.0 mm 0.00 in0.0 mm 0.20 in5.1 mm
06:30 AM 52.4°F11.3°C 51.9°F11.1°C 98% Calm Calm -- 29.55 in1000.7 mb 0.00 in0.0 mm 0.00 in0.0 mm 0.20 in5.1 mm
06:20 AM 52.4°F11.3°C 51.9°F11.1°C 98% Calm Calm 2.0 mph3.2 kmh 29.55 in1000.7 mb 0.00 in0.0 mm 0.00 in0.0 mm 0.20 in5.1 mm
06:10 AM 52.4°F11.3°C 51.9°F11.1°C 98% Calm Calm 2.0 mph3.2 kmh 29.55 in1000.7 mb 0.00 in0.0 mm 0.00 in0.0 mm 0.20 in5.1 mm
06:00 AM 52.5°F11.4°C 51.7°F10.9°C 97% Calm Calm -- 29.55 in1000.7 mb 0.00 in0.0 mm 0.00 in0.0 mm 0.20 in5.1 mm
05:50 AM 52.5°F11.4°C 51.7°F10.9°C 97% Calm Calm -- 29.53 in1000.0 mb 0.01 in0.3 mm 0.00 in0.0 mm 0.20 in5.1 mm
05:40 AM 52.7°F11.5°C 51.9°F11.1°C 97% Calm Calm -- 29.53 in1000.0 mb 0.02 in0.5 mm 0.00 in0.0 mm 0.20 in5.1 mm
05:30 AM 52.8°F11.6°C 52.3°F11.3°C 98% Calm Calm -- 29.53 in1000.0 mb 0.03 in0.8 mm 0.00 in0.0 mm 0.20 in5.1 mm
05:20 AM 52.9°F11.6°C 52.4°F11.3°C 98% Calm Calm -- 29.53 in1000.0 mb 0.04 in1.0 mm 0.00 in0.0 mm 0.20 in5.1 mm
05:10 AM 53.0°F11.7°C 52.5°F11.4°C 98% Calm Calm -- 29.54 in1000.3 mb 0.04 in1.0 mm 0.00 in0.0 mm 0.20 in5.1 mm
05:00 AM 53.1°F11.7°C 52.6°F11.4°C 98% Calm Calm 2.0 mph3.2 kmh 29.53 in1000.0 mb 0.05 in1.3 mm 0.00 in0.0 mm 0.20 in5.1 mm
04:50 AM 53.1°F11.7°C 52.6°F11.4°C 98% Calm Calm 1.0 mph1.6 kmh 29.55 in1000.7 mb 0.05 in1.3 mm 0.06 in1.5 mm 0.19 in4.8 mm
04:40 AM 53.2°F11.8°C 52.4°F11.3°C 97% Calm Calm 1.0 mph1.6 kmh 29.54 in1000.3 mb 0.04 in1.0 mm 0.06 in1.5 mm 0.18 in4.6 mm
04:30 AM 53.2°F11.8°C 52.4°F11.3°C 97% Calm Calm -- 29.53 in1000.0 mb 0.03 in0.8 mm 0.00 in0.0 mm 0.17 in4.3 mm
04:20 AM 53.2°F11.8°C 52.4°F11.3°C 97% Calm Calm 1.0 mph1.6 kmh 29.52 in999.7 mb 0.03 in0.8 mm 0.00 in0.0 mm 0.16 in4.1 mm
04:10 AM 53.3°F11.8°C 52.7°F11.5°C 98% Calm Calm 2.0 mph3.2 kmh 29.53 in1000.0 mb 0.04 in1.0 mm 0.03 in0.8 mm 0.16 in4.1 mm
03:50 AM 53.5°F11.9°C 52.9°F11.6°C 98% Calm Calm 1.0 mph1.6 kmh 29.52 in999.7 mb 0.02 in0.5 mm 0.00 in0.0 mm 0.14 in3.6 mm
03:40 AM 53.7°F12.1°C 52.9°F11.6°C 97% Calm Calm 1.0 mph1.6 kmh 29.53 in1000.0 mb 0.02 in0.5 mm 0.00 in0.0 mm 0.14 in3.6 mm
03:30 AM 53.8°F12.1°C 53.0°F11.7°C 97% Calm Calm 1.0 mph1.6 kmh 29.53 in1000.0 mb 0.03 in0.8 mm 0.00 in0.0 mm 0.14 in3.6 mm
03:20 AM 53.9°F12.2°C 53.1°F11.7°C 97% Calm Calm -- 29.55 in1000.7 mb 0.04 in1.0 mm 0.00 in0.0 mm 0.13 in3.3 mm
03:10 AM 53.9°F12.2°C 53.1°F11.7°C 97% Calm Calm 2.0 mph3.2 kmh 29.56 in1001.0 mb 0.04 in1.0 mm 0.00 in0.0 mm 0.12 in3.0 mm
03:00 AM 53.9°F12.2°C 53.9°F12.2°C 100% Calm Calm 6.0 mph9.7 kmh 29.56 in1001.0 mb 0.05 in1.3 mm 0.00 in0.0 mm 0.12 in3.0 mm
02:50 AM 54.1°F12.3°C 53.5°F11.9°C 98% 1.0 mph N1.6 kmh N 5.0 mph8.0 kmh 29.56 in1001.0 mb 0.05 in1.3 mm 0.00 in0.0 mm 0.12 in3.0 mm
02:40 AM 54.2°F12.3°C 53.6°F12.0°C 98% Calm Calm 3.0 mph4.8 kmh 29.55 in1000.7 mb 0.06 in1.5 mm 0.06 in1.5 mm 0.12 in3.0 mm
02:30 AM 54.3°F12.4°C 53.5°F11.9°C 97% Calm Calm 3.0 mph4.8 kmh 29.55 in1000.7 mb 0.05 in1.3 mm 0.12 in3.0 mm 0.11 in2.8 mm
02:20 AM 54.5°F12.5°C 53.7°F12.1°C 97% 1.0 mph NE1.6 kmh NE 3.0 mph4.8 kmh 29.55 in1000.7 mb 0.03 in0.8 mm 0.06 in1.5 mm 0.09 in2.3 mm
02:10 AM 54.7°F12.6°C 54.1°F12.3°C 98% 1.0 mph NE1.6 kmh NE 4.0 mph6.4 kmh 29.56 in1001.0 mb 0.02 in0.5 mm 0.06 in1.5 mm 0.08 in2.0 mm
02:00 AM 54.7°F12.6°C 54.1°F12.3°C 98% Calm Calm 5.0 mph8.0 kmh 29.57 in1001.4 mb 0.01 in0.3 mm 0.00 in0.0 mm 0.07 in1.8 mm
01:50 AM 54.6°F12.6°C 54.0°F12.2°C 98% 2.0 mph NW3.2 kmh NW 14.0 mph22.5 kmh 29.57 in1001.4 mb 0.01 in0.3 mm 0.06 in1.5 mm 0.07 in1.8 mm
01:40 AM 54.3°F12.4°C 53.7°F12.1°C 98% 8.0 mph NW12.9 kmh NW 11.0 mph17.7 kmh 29.59 in1002.0 mb 0.00 in0.0 mm 0.00 in0.0 mm 0.06 in1.5 mm
01:30 AM 54.2°F12.3°C 53.6°F12.0°C 98% Calm Calm -- 29.56 in1001.0 mb 0.00 in0.0 mm 0.00 in0.0 mm 0.06 in1.5 mm
01:20 AM 54.2°F12.3°C 53.6°F12.0°C 98% Calm Calm -- 29.56 in1001.0 mb 0.00 in0.0 mm 0.00 in0.0 mm 0.06 in1.5 mm
01:10 AM 54.2°F12.3°C 53.6°F12.0°C 98% Calm Calm 1.0 mph1.6 kmh 29.56 in1001.0 mb 0.04 in1.0 mm 0.00 in0.0 mm 0.06 in1.5 mm
01:00 AM 54.2°F12.3°C 53.6°F12.0°C 98% Calm Calm 3.0 mph4.8 kmh 29.53 in1000.0 mb 0.06 in1.5 mm 0.00 in0.0 mm 0.06 in1.5 mm
12:50 AM 54.2°F12.3°C 53.6°F12.0°C 98% Calm Calm 1.0 mph1.6 kmh 29.53 in1000.0 mb 0.06 in1.5 mm 0.00 in0.0 mm 0.06 in1.5 mm
12:40 AM 54.2°F12.3°C 53.6°F12.0°C 98% Calm Calm 1.0 mph1.6 kmh 29.53 in1000.0 mb 0.06 in1.5 mm 0.00 in0.0 mm 0.06 in1.5 mm
12:30 AM 54.2°F12.3°C 53.6°F12.0°C 98% Calm Calm 1.0 mph1.6 kmh 29.54 in1000.3 mb 0.06 in1.5 mm 0.00 in0.0 mm 0.06 in1.5 mm
12:20 AM 54.2°F12.3°C 53.6°F12.0°C 98% 1.0 mph N1.6 kmh N 7.0 mph11.3 kmh 29.54 in1000.3 mb 0.06 in1.5 mm 0.24 in6.1 mm 0.06 in1.5 mm
12:10 AM 54.2°F12.3°C 53.4°F11.9°C 97% 2.0 mph ENE3.2 kmh ENE 3.0 mph4.8 kmh 29.55 in1000.7 mb 0.02 in0.5 mm 0.12 in3.0 mm 0.02 in0.5 mm
12:00 AM 54.2°F12.3°C 53.4°F11.9°C 97% 1.0 mph NE1.6 kmh NE 4.0 mph6.4 kmh 29.56 in1001.0 mb 0.00 in0.0 mm 0.00 in0.0 mm 0.00 in0.0 mm